Time;durP1;ratioP1;P1;durP2;ratioP2;P2;SDS_P1;SDS_P2;PMS_P1;PMS_P2;Temp;Humidity;BMP_temperature;BMP_pressure;BME280_temperature;BME280_humidity;BME280_pressure;Samples;Min_cycle;Max_cycle;Signal;HPM_P1;HPM_P2
2021/09/05 00:00:55;;;;;;;19.23;10.67;;;10.80;97.30;;;;;;5035838;28;20263;-83
2021/09/05 00:03:21;;;;;;;26.40;10.87;;;10.70;97.30;;;;;;5035232;28;20200;-83
2021/09/05 00:05:46;;;;;;;19.53;10.73;;;10.70;97.30;;;;;;5035528;28;20195;-83
2021/09/05 00:08:12;;;;;;;19.20;10.73;;;10.70;97.30;;;;;;5035399;28;20187;-83
2021/09/05 00:10:37;;;;;;;21.33;10.73;;;10.70;97.30;;;;;;5035426;28;20183;-82
2021/09/05 00:13:03;;;;;;;21.00;11.83;;;10.60;97.30;;;;;;5035783;28;20680;-83
2021/09/05 00:15:29;;;;;;;19.63;10.70;;;10.60;97.30;;;;;;5054734;28;20287;-83
2021/09/05 00:17:54;;;;;;;21.80;11.33;;;10.60;97.30;;;;;;5055073;28;20246;-83
2021/09/05 00:20:20;;;;;;;20.60;10.33;;;10.60;97.30;;;;;;5036557;28;20180;-83
2021/09/05 00:22:46;;;;;;;19.67;10.60;;;10.50;97.30;;;;;;5035902;28;20729;-83
2021/09/05 00:25:12;;;;;;;21.63;11.13;;;10.50;97.30;;;;;;5035179;28;20622;-83
2021/09/05 00:27:37;;;;;;;22.87;10.23;;;10.50;97.30;;;;;;5052789;28;20415;-83
2021/09/05 00:30:04;;;;;;;22.43;10.80;;;10.40;97.30;;;;;;5052942;28;20180;-83
2021/09/05 00:32:29;;;;;;;16.40;9.13;;;10.40;97.30;;;;;;5034342;28;20179;-83
2021/09/05 00:34:55;;;;;;;20.13;10.00;;;10.40;97.30;;;;;;5033904;28;20480;-83
2021/09/05 00:37:20;;;;;;;14.77;9.00;;;10.30;97.30;;;;;;5034404;28;20191;-83
2021/09/05 00:39:46;;;;;;;21.93;10.90;;;10.30;97.30;;;;;;5034142;28;20183;-83
2021/09/05 00:42:11;;;;;;;28.60;13.70;;;10.30;97.30;;;;;;5051989;28;20196;-82
2021/09/05 00:44:37;;;;;;;21.73;11.57;;;10.20;97.30;;;;;;5034973;28;20196;-83
2021/09/05 00:47:02;;;;;;;22.33;10.97;;;10.20;97.30;;;;;;5035757;28;20643;-83
2021/09/05 00:49:28;;;;;;;27.60;14.43;;;10.30;97.30;;;;;;5035830;28;20191;-83
2021/09/05 00:51:53;;;;;;;30.40;12.47;;;10.30;97.30;;;;;;5036120;28;20448;-83
2021/09/05 00:54:20;;;;;;;24.03;12.93;;;10.30;97.30;;;;;;5034698;28;20187;-83
2021/09/05 00:56:45;;;;;;;23.90;11.93;;;10.30;97.30;;;;;;5033863;28;20664;-83
2021/09/05 00:59:17;;;;;;;21.87;11.87;;;10.30;97.30;;;;;;5034553;28;20414;-83
2021/09/05 01:01:43;;;;;;;18.37;11.10;;;10.30;97.30;;;;;;5051993;28;20797;-83
2021/09/05 01:04:09;;;;;;;24.60;12.57;;;10.30;97.30;;;;;;5033885;28;20462;-83
2021/09/05 01:06:35;;;;;;;18.93;10.33;;;10.20;97.30;;;;;;5033705;28;20195;-83
2021/09/05 01:09:03;;;;;;;21.73;10.87;;;10.10;97.30;;;;;;5034278;28;20620;-83
2021/09/05 01:11:33;;;;;;;22.90;12.00;;;10.10;97.30;;;;;;5033728;28;20508;-83
2021/09/05 01:14:01;;;;;;;26.13;11.73;;;10.00;97.30;;;;;;5052176;28;20402;-83
2021/09/05 01:16:30;;;;;;;22.87;12.03;;;10.00;97.30;;;;;;5034698;28;20457;-83
2021/09/05 01:19:07;;;;;;;20.03;12.50;;;10.00;97.30;;;;;;5035643;28;20418;-84
2021/09/05 01:21:33;;;;;;;24.40;12.00;;;9.90;97.30;;;;;;5035584;28;20525;-83
2021/09/05 01:24:00;;;;;;;20.60;10.83;;;9.90;97.30;;;;;;5053259;28;20453;-83
2021/09/05 01:26:27;;;;;;;23.10;10.93;;;9.90;97.30;;;;;;5052563;28;20485;-83
2021/09/05 01:28:53;;;;;;;21.03;12.40;;;9.80;97.30;;;;;;5034405;28;21114;-84
2021/09/05 01:31:20;;;;;;;19.87;12.27;;;9.80;97.30;;;;;;5051806;28;20465;-83
2021/09/05 01:33:46;;;;;;;25.33;11.03;;;9.80;97.30;;;;;;5034705;28;20176;-83
2021/09/05 01:36:11;;;;;;;26.37;11.73;;;9.80;97.30;;;;;;5033807;28;20634;-83
2021/09/05 01:38:37;;;;;;;22.97;11.53;;;9.80;97.30;;;;;;5033632;28;21008;-83
2021/09/05 01:41:02;;;;;;;26.93;11.83;;;9.80;97.30;;;;;;5033759;28;20270;-83
2021/09/05 01:43:31;;;;;;;24.40;12.77;;;9.80;97.30;;;;;;5033985;28;20215;-83
2021/09/05 01:45:56;;;;;;;22.60;12.10;;;9.90;97.30;;;;;;5034966;28;20206;-83
2021/09/05 01:48:22;;;;;;;24.83;12.47;;;9.80;97.30;;;;;;5034550;28;20414;-83
2021/09/05 01:50:47;;;;;;;24.30;12.63;;;9.80;97.30;;;;;;5036835;28;20187;-83
2021/09/05 01:53:13;;;;;;;19.13;10.93;;;9.80;97.30;;;;;;5039403;28;20573;-83
2021/09/05 01:55:39;;;;;;;22.27;11.43;;;9.80;97.30;;;;;;5039673;28;20844;-83
2021/09/05 01:58:04;;;;;;;21.60;10.37;;;9.70;97.30;;;;;;5039316;28;20188;-83
2021/09/05 02:00:30;;;;;;;22.73;11.53;;;9.70;97.30;;;;;;5056018;28;20448;-84
2021/09/05 02:02:56;;;;;;;26.70;11.20;;;9.70;97.30;;;;;;5037912;28;20282;-83
2021/09/05 02:05:21;;;;;;;22.50;11.57;;;9.70;97.30;;;;;;5038155;28;20632;-83
2021/09/05 02:07:46;;;;;;;26.70;12.53;;;9.60;97.30;;;;;;5038308;28;20668;-83
2021/09/05 02:10:12;;;;;;;22.37;12.10;;;9.60;97.30;;;;;;5037434;28;20175;-83
2021/09/05 02:12:37;;;;;;;21.57;11.67;;;9.60;97.30;;;;;;5037878;28;20176;-83
2021/09/05 02:15:03;;;;;;;23.17;11.93;;;9.50;97.30;;;;;;5043063;28;20207;-83
2021/09/05 02:17:29;;;;;;;21.37;11.53;;;9.50;97.30;;;;;;5037567;28;20180;-83
2021/09/05 02:19:54;;;;;;;24.37;12.30;;;9.50;97.30;;;;;;5055260;28;20422;-83
2021/09/05 02:22:20;;;;;;;28.87;12.40;;;9.50;97.30;;;;;;5056721;28;20179;-83
2021/09/05 02:24:46;;;;;;;21.53;12.83;;;9.50;97.30;;;;;;5057001;28;20247;-83
2021/09/05 02:27:11;;;;;;;28.07;12.47;;;9.40;97.30;;;;;;5039343;28;20179;-83
2021/09/05 02:29:37;;;;;;;21.07;11.20;;;9.40;97.30;;;;;;5038765;28;20647;-83
2021/09/05 02:32:02;;;;;;;21.13;11.50;;;9.40;97.30;;;;;;5037342;28;20168;-83
2021/09/05 02:34:28;;;;;;;22.77;11.00;;;9.40;97.30;;;;;;5037631;28;20183;-83
2021/09/05 02:36:53;;;;;;;20.50;11.03;;;9.40;97.30;;;;;;5037349;28;20175;-83
2021/09/05 02:39:19;;;;;;;23.90;11.40;;;9.40;97.30;;;;;;5037321;28;20188;-83
2021/09/05 02:41:45;;;;;;;22.33;11.23;;;9.40;97.30;;;;;;5036312;28;20237;-83
2021/09/05 02:44:10;;;;;;;24.47;12.10;;;9.30;97.30;;;;;;5047104;28;20262;-83
2021/09/05 02:46:35;;;;;;;24.40;12.47;;;9.30;97.30;;;;;;5049581;28;20207;-83
2021/09/05 02:49:01;;;;;;;24.00;12.23;;;9.30;97.30;;;;;;5055058;28;20183;-82
2021/09/05 02:51:27;;;;;;;27.60;12.80;;;9.30;97.30;;;;;;5036959;28;20276;-83
2021/09/05 02:53:52;;;;;;;32.47;11.90;;;9.20;97.30;;;;;;5056036;28;20442;-83
2021/09/05 02:56:18;;;;;;;24.00;11.47;;;9.20;97.30;;;;;;5038756;28;20203;-83
2021/09/05 02:58:43;;;;;;;29.43;12.30;;;9.20;97.30;;;;;;5056728;28;20183;-83
2021/09/05 03:01:09;;;;;;;22.77;11.80;;;9.20;97.30;;;;;;5038346;28;20234;-83
2021/09/05 03:03:34;;;;;;;22.00;11.57;;;9.20;97.30;;;;;;5036902;28;20202;-83
2021/09/05 03:06:00;;;;;;;30.03;12.33;;;9.20;97.30;;;;;;5054487;28;20242;-83
2021/09/05 03:08:25;;;;;;;28.13;12.70;;;9.20;97.30;;;;;;5036875;28;20686;-83
2021/09/05 03:10:51;;;;;;;24.30;11.67;;;9.20;97.30;;;;;;5036818;28;20172;-83
2021/09/05 03:13:17;;;;;;;21.43;11.57;;;9.20;97.30;;;;;;5036185;28;20180;-83
2021/09/05 03:15:43;;;;;;;20.57;11.33;;;9.20;97.30;;;;;;5036535;28;20273;-83
2021/09/05 03:18:08;;;;;;;20.83;10.87;;;9.20;97.30;;;;;;5036664;28;20983;-83
2021/09/05 03:20:34;;;;;;;26.13;11.30;;;9.10;97.30;;;;;;5036806;28;20172;-83
2021/09/05 03:22:59;;;;;;;22.60;11.20;;;9.10;97.30;;;;;;5036520;28;20207;-83
2021/09/05 03:25:25;;;;;;;25.00;11.40;;;9.10;97.30;;;;;;5037014;28;20285;-83
2021/09/05 03:27:51;;;;;;;21.03;11.63;;;9.10;97.30;;;;;;5037769;28;20179;-83
2021/09/05 03:30:16;;;;;;;27.20;10.60;;;9.10;97.30;;;;;;5037791;28;20573;-83
2021/09/05 03:32:42;;;;;;;16.80;10.20;;;9.10;97.30;;;;;;5037350;28;20187;-83
2021/09/05 03:35:08;;;;;;;25.07;13.00;;;9.10;97.30;;;;;;5036733;28;20235;-81
2021/09/05 03:37:34;;;;;;;20.53;10.47;;;9.00;97.30;;;;;;5036616;28;20461;-83
2021/09/05 03:39:59;;;;;;;23.10;11.00;;;9.00;97.30;;;;;;5036035;28;20449;-83
2021/09/05 03:42:25;;;;;;;22.57;11.37;;;9.00;97.30;;;;;;5036087;28;20187;-83
2021/09/05 03:44:50;;;;;;;25.60;11.00;;;9.00;97.30;;;;;;5053464;28;20306;-83
2021/09/05 03:47:16;;;;;;;21.00;11.43;;;9.00;97.30;;;;;;5053665;28;20168;-83
2021/09/05 03:49:41;;;;;;;18.93;10.27;;;9.00;97.30;;;;;;5036075;28;20237;-83
2021/09/05 03:52:07;;;;;;;25.03;11.87;;;9.00;97.30;;;;;;5035545;28;20545;-84
2021/09/05 03:54:32;;;;;;;25.10;11.47;;;9.00;97.30;;;;;;5036073;28;20283;-83
2021/09/05 03:56:58;;;;;;;21.17;11.73;;;9.00;97.30;;;;;;5036464;28;20180;-83
2021/09/05 03:59:23;;;;;;;19.67;10.00;;;9.00;97.30;;;;;;5036450;28;20176;-82
2021/09/05 04:01:49;;;;;;;21.50;10.43;;;9.00;97.30;;;;;;5037110;28;20172;-83
2021/09/05 04:04:14;;;;;;;19.20;11.60;;;9.00;97.30;;;;;;5037131;28;20199;-83
2021/09/05 04:06:40;;;;;;;22.60;10.80;;;9.00;97.30;;;;;;5037190;28;20183;-83
2021/09/05 04:09:09;;;;;;;22.90;11.27;;;9.00;97.30;;;;;;5036115;28;20266;-83
2021/09/05 04:11:36;;;;;;;21.23;11.23;;;9.00;97.30;;;;;;5035598;28;20178;-83
2021/09/05 04:14:02;;;;;;;23.67;11.53;;;9.10;97.30;;;;;;5034601;28;20801;-83
2021/09/05 04:16:27;;;;;;;24.60;11.97;;;9.10;97.30;;;;;;5035357;28;20511;-83
2021/09/05 04:18:53;;;;;;;24.27;12.27;;;9.10;97.30;;;;;;5034949;28;20827;-83
2021/09/05 04:21:18;;;;;;;29.33;13.80;;;9.10;97.30;;;;;;5034601;28;20592;-83
2021/09/05 04:23:44;;;;;;;23.87;13.03;;;9.10;97.30;;;;;;5034968;28;20196;-83
2021/09/05 04:26:09;;;;;;;36.40;13.33;;;9.10;97.30;;;;;;5034952;28;20183;-83
2021/09/05 04:28:35;;;;;;;23.70;12.67;;;9.10;97.30;;;;;;5045043;28;20283;-83
2021/09/05 04:31:06;;;;;;;24.40;12.40;;;9.20;97.30;;;;;;5034408;28;20180;-83
2021/09/05 04:33:32;;;;;;;27.87;13.07;;;9.20;97.30;;;;;;5030040;28;20188;-83
2021/09/05 04:35:58;;;;;;;32.13;14.40;;;9.20;97.30;;;;;;5050498;28;20472;-83
2021/09/05 04:38:23;;;;;;;33.37;13.97;;;9.20;97.30;;;;;;5051744;28;20179;-83
2021/09/05 04:40:49;;;;;;;28.13;13.90;;;9.20;97.30;;;;;;5049028;28;20453;-84
2021/09/05 04:43:14;;;;;;;41.53;14.40;;;9.20;97.30;;;;;;5047081;28;20291;-83
2021/09/05 04:45:40;;;;;;;28.20;15.07;;;9.30;97.30;;;;;;5035052;28;20204;-83
2021/09/05 04:48:05;;;;;;;36.57;15.93;;;9.30;97.30;;;;;;5027109;28;20175;-84
2021/09/05 04:50:31;;;;;;;35.20;15.17;;;9.30;97.30;;;;;;5046343;28;20184;-84
2021/09/05 04:52:56;;;;;;;40.97;16.57;;;9.30;97.30;;;;;;5017057;28;20226;-83
2021/09/05 04:55:22;;;;;;;32.17;15.30;;;9.30;97.30;;;;;;5022658;28;20675;-83
2021/09/05 04:57:47;;;;;;;35.43;14.63;;;9.40;97.30;;;;;;5051255;28;20180;-83
2021/09/05 05:00:13;;;;;;;32.23;15.70;;;9.40;97.30;;;;;;5033893;28;20176;-84
2021/09/05 05:02:39;;;;;;;32.60;15.83;;;9.50;97.30;;;;;;5028080;28;20194;-83
2021/09/05 05:05:05;;;;;;;32.93;14.13;;;9.50;97.30;;;;;;5020814;28;20481;-83
2021/09/05 05:07:33;;;;;;;32.17;14.37;;;9.50;97.30;;;;;;5028704;28;20729;-83
2021/09/05 05:09:58;;;;;;;35.10;15.70;;;9.50;97.30;;;;;;5019385;28;20423;-86
2021/09/05 05:12:24;;;;;;;32.10;14.23;;;9.50;97.30;;;;;;5052054;28;20406;-84
2021/09/05 05:14:52;;;;;;;29.10;14.27;;;9.60;97.30;;;;;;5039522;28;20184;-85
2021/09/05 05:17:18;;;;;;;28.90;14.27;;;9.60;97.30;;;;;;5035063;28;20187;-83
2021/09/05 05:19:44;;;;;;;29.27;13.60;;;9.60;97.30;;;;;;5034987;28;20423;-84
2021/09/05 05:22:09;;;;;;;29.67;14.13;;;9.60;97.30;;;;;;5024633;28;20173;-84
2021/09/05 05:24:35;;;;;;;28.57;12.90;;;9.60;97.30;;;;;;5025887;28;20199;-84
2021/09/05 05:27:00;;;;;;;24.97;13.03;;;9.60;97.30;;;;;;5028114;28;20218;-84
2021/09/05 05:29:26;;;;;;;26.20;12.33;;;9.60;97.30;;;;;;5033950;28;20179;-83
2021/09/05 05:31:53;;;;;;;21.70;11.80;;;9.60;97.30;;;;;;5038542;28;20171;-83
2021/09/05 05:34:18;;;;;;;26.43;12.37;;;9.60;97.30;;;;;;5027251;28;20203;-83
2021/09/05 05:36:44;;;;;;;23.80;12.50;;;9.70;97.30;;;;;;5035196;28;20549;-84
2021/09/05 05:39:09;;;;;;;23.43;12.97;;;9.70;97.30;;;;;;5033254;28;20180;-84
2021/09/05 05:41:35;;;;;;;20.17;12.10;;;9.70;97.30;;;;;;5022981;28;20181;-84
2021/09/05 05:44:00;;;;;;;21.53;11.50;;;9.80;97.30;;;;;;5020445;28;20705;-84
2021/09/05 05:46:26;;;;;;;22.70;12.03;;;9.80;97.30;;;;;;5035976;28;20196;-84
2021/09/05 05:48:51;;;;;;;21.63;11.67;;;9.80;97.30;;;;;;5052226;28;20258;-83
2021/09/05 05:51:17;;;;;;;17.77;10.40;;;9.90;97.30;;;;;;5033390;28;20188;-82
2021/09/05 05:53:42;;;;;;;17.60;10.77;;;9.90;97.30;;;;;;5023191;28;20184;-83
2021/09/05 05:56:08;;;;;;;21.53;12.43;;;9.90;97.30;;;;;;5032206;28;20214;-83
2021/09/05 05:58:33;;;;;;;22.50;11.73;;;10.00;97.30;;;;;;5035263;28;20190;-83
2021/09/05 06:00:59;;;;;;;18.53;10.40;;;10.00;97.30;;;;;;5036772;28;20290;-83
2021/09/05 06:03:24;;;;;;;18.63;10.40;;;10.00;97.30;;;;;;5037540;28;20210;-84
2021/09/05 06:05:50;;;;;;;18.10;10.63;;;10.00;97.30;;;;;;5037297;28;20203;-84
2021/09/05 06:08:15;;;;;;;20.50;10.07;;;10.10;97.30;;;;;;5048803;28;20180;-83
2021/09/05 06:10:41;;;;;;;19.97;11.37;;;10.10;97.30;;;;;;5038452;28;20733;-84
2021/09/05 06:13:06;;;;;;;23.40;10.70;;;10.20;97.30;;;;;;5029986;28;20176;-84
2021/09/05 06:15:32;;;;;;;21.87;11.20;;;10.20;97.30;;;;;;5024115;28;20269;-84
2021/09/05 06:17:58;;;;;;;20.40;12.53;;;10.30;97.30;;;;;;5048140;28;20611;-83
2021/09/05 06:20:24;;;;;;;21.87;12.07;;;10.30;97.30;;;;;;5025269;28;20179;-84
2021/09/05 06:22:49;;;;;;;20.00;11.03;;;10.40;97.30;;;;;;5036757;28;20207;-83
2021/09/05 06:25:15;;;;;;;22.97;11.83;;;10.40;97.30;;;;;;5047868;28;20421;-84
2021/09/05 06:27:40;;;;;;;21.03;11.80;;;10.50;97.30;;;;;;5037190;28;20207;-84
2021/09/05 06:30:06;;;;;;;24.30;12.40;;;10.60;97.30;;;;;;5031645;28;20551;-83
2021/09/05 06:32:32;;;;;;;24.43;11.30;;;10.70;97.30;;;;;;5021860;28;20268;-83
2021/09/05 06:34:57;;;;;;;24.10;12.03;;;10.70;97.30;;;;;;5043532;28;21108;-83
2021/09/05 06:37:23;;;;;;;26.30;13.47;;;10.80;97.30;;;;;;5037381;28;20172;-83
2021/09/05 06:39:48;;;;;;;24.57;12.00;;;10.90;97.30;;;;;;5031148;28;20180;-82
2021/09/05 06:42:15;;;;;;;28.03;13.90;;;11.00;97.30;;;;;;5020223;28;20206;-84
2021/09/05 06:44:40;;;;;;;30.87;15.00;;;11.00;97.30;;;;;;5026508;28;20197;-84
2021/09/05 06:47:06;;;;;;;30.90;15.50;;;11.10;97.30;;;;;;5036081;28;20957;-84
2021/09/05 06:49:31;;;;;;;31.87;13.30;;;11.20;97.30;;;;;;5032007;28;20181;-84
2021/09/05 06:51:57;;;;;;;34.03;14.13;;;11.30;97.30;;;;;;5022315;28;20222;-83
2021/09/05 06:54:22;;;;;;;29.67;14.37;;;11.40;97.30;;;;;;5024379;28;20211;-83
2021/09/05 06:56:48;;;;;;;32.03;14.10;;;11.50;97.30;;;;;;5022274;28;20203;-83
2021/09/05 06:59:15;;;;;;;37.23;15.30;;;11.60;97.30;;;;;;5025866;28;20222;-83
2021/09/05 07:01:41;;;;;;;31.87;13.93;;;11.70;97.30;;;;;;5034272;28;20176;-83
2021/09/05 07:04:06;;;;;;;23.53;13.27;;;11.80;97.30;;;;;;5035704;28;20572;-84
2021/09/05 07:06:32;;;;;;;34.00;15.70;;;11.90;97.30;;;;;;5030517;28;20663;-83
2021/09/05 07:08:57;;;;;;;31.43;14.33;;;12.00;97.30;;;;;;5031172;28;20318;-83
2021/09/05 07:11:23;;;;;;;27.10;13.10;;;12.10;97.30;;;;;;5037145;28;20544;-83
2021/09/05 07:13:48;;;;;;;28.07;12.60;;;12.20;97.30;;;;;;5033707;28;20195;-84
2021/09/05 07:16:14;;;;;;;28.03;12.50;;;12.30;97.30;;;;;;5029004;28;20199;-84
2021/09/05 07:18:41;;;;;;;35.83;15.10;;;12.30;97.30;;;;;;5027575;28;20703;-84
2021/09/05 07:21:06;;;;;;;30.53;14.63;;;12.40;97.30;;;;;;5025731;28;20180;-82
2021/09/05 07:23:32;;;;;;;30.43;13.10;;;12.50;97.30;;;;;;5017071;28;20517;-85
2021/09/05 07:25:58;;;;;;;29.10;13.97;;;12.60;97.30;;;;;;5022052;28;20478;-84
2021/09/05 07:28:23;;;;;;;27.77;12.83;;;12.70;97.30;;;;;;5020156;28;20200;-84
2021/09/05 07:30:49;;;;;;;27.50;12.97;;;12.80;97.30;;;;;;5026394;28;20172;-84
2021/09/05 07:33:14;;;;;;;27.47;11.30;;;12.90;97.30;;;;;;5035649;28;20185;-84
2021/09/05 07:35:40;;;;;;;25.03;11.80;;;13.00;97.30;;;;;;5023377;28;20227;-85
2021/09/05 07:38:05;;;;;;;27.77;12.63;;;13.00;97.30;;;;;;5054784;28;20176;-85
2021/09/05 07:40:31;;;;;;;32.97;13.20;;;13.10;97.30;;;;;;5036843;28;20172;-84
2021/09/05 07:42:57;;;;;;;32.70;12.50;;;13.20;97.30;;;;;;5021686;28;20644;-82
2021/09/05 07:45:22;;;;;;;26.27;12.13;;;13.30;97.30;;;;;;5023208;28;20225;-83
2021/09/05 07:47:48;;;;;;;26.50;13.13;;;13.30;97.30;;;;;;5027844;28;20198;-84
2021/09/05 07:50:13;;;;;;;26.53;11.33;;;13.40;97.30;;;;;;5054742;28;20638;-82
2021/09/05 07:52:39;;;;;;;27.70;12.77;;;13.40;97.30;;;;;;5053950;28;20237;-84
2021/09/05 07:55:04;;;;;;;30.50;13.27;;;13.50;97.30;;;;;;5037340;28;20812;-84
2021/09/05 07:57:30;;;;;;;24.87;12.67;;;13.60;97.30;;;;;;5055588;28;20171;-84
2021/09/05 07:59:55;;;;;;;27.07;11.00;;;13.60;97.30;;;;;;5055280;28;20168;-85
2021/09/05 08:02:21;;;;;;;30.00;12.30;;;13.70;97.30;;;;;;5036815;28;20263;-84
2021/09/05 08:04:46;;;;;;;26.23;11.67;;;13.80;97.30;;;;;;5054055;28;20207;-84
2021/09/05 08:07:15;;;;;;;32.50;12.67;;;13.90;97.30;;;;;;5047681;28;20195;-82
2021/09/05 08:09:40;;;;;;;27.73;12.10;;;13.90;97.30;;;;;;5022592;28;20180;-84
2021/09/05 08:12:06;;;;;;;34.50;12.40;;;14.00;97.30;;;;;;5028062;28;20429;-86
2021/09/05 08:14:33;;;;;;;35.97;14.33;;;14.10;97.30;;;;;;5048593;28;20180;-84
2021/09/05 08:16:58;;;;;;;33.50;12.30;;;14.20;97.30;;;;;;5023606;28;20188;-83
2021/09/05 08:19:24;;;;;;;29.57;11.60;;;14.20;97.30;;;;;;5035730;28;20485;-83
2021/09/05 08:21:49;;;;;;;28.40;12.53;;;14.30;97.30;;;;;;5052710;28;20216;-83
2021/09/05 08:24:15;;;;;;;35.00;14.50;;;14.40;97.30;;;;;;5026812;28;20211;-82
2021/09/05 08:26:40;;;;;;;37.43;14.30;;;14.50;97.30;;;;;;5026775;28;20168;-82
2021/09/05 08:29:08;;;;;;;29.10;12.67;;;14.50;97.30;;;;;;5049939;28;20176;-83
2021/09/05 08:31:34;;;;;;;25.97;12.77;;;14.60;97.30;;;;;;5032663;28;20249;-83
2021/09/05 08:33:59;;;;;;;36.80;13.20;;;14.60;97.30;;;;;;5026575;28;20410;-82
2021/09/05 08:36:25;;;;;;;33.57;12.43;;;14.80;97.30;;;;;;5027194;28;20466;-82
2021/09/05 08:38:51;;;;;;;32.87;12.50;;;14.80;97.30;;;;;;5029792;28;20168;-82
2021/09/05 08:41:23;;;;;;;49.10;13.40;;;14.90;97.30;;;;;;5019339;28;20201;-82
2021/09/05 08:43:48;;;;;;;30.13;11.80;;;14.90;97.30;;;;;;5035838;28;20476;-83
2021/09/05 08:46:14;;;;;;;31.30;12.40;;;15.00;97.30;;;;;;5026967;28;21075;-83
2021/09/05 08:48:43;;;;;;;32.33;13.83;;;15.00;97.30;;;;;;5033550;28;20255;-85
2021/09/05 08:51:08;;;;;;;27.60;12.17;;;15.10;97.30;;;;;;5029907;28;20422;-83
2021/09/05 08:53:35;;;;;;;32.80;14.30;;;15.20;97.30;;;;;;5041069;28;20422;-83
2021/09/05 08:56:00;;;;;;;33.93;13.07;;;15.30;97.30;;;;;;5032866;28;20208;-83
2021/09/05 08:58:26;;;;;;;39.50;14.20;;;15.30;97.30;;;;;;5015527;28;20431;-79
2021/09/05 09:00:51;;;;;;;46.43;13.47;;;15.30;97.30;;;;;;5024109;28;20830;-84
2021/09/05 09:03:20;;;;;;;34.17;13.27;;;15.40;97.30;;;;;;5025448;28;20980;-83
2021/09/05 09:05:53;;;;;;;38.27;15.80;;;15.50;97.30;;;;;;5014774;28;20203;-83
2021/09/05 09:08:21;;;;;;;44.50;14.20;;;15.50;97.30;;;;;;5031085;28;20516;-83
2021/09/05 09:10:51;;;;;;;35.97;13.33;;;15.60;97.30;;;;;;5027807;28;20423;-83
2021/09/05 09:13:38;;;;;;;39.27;13.33;;;15.60;97.30;;;;;;5033108;28;20423;-82
2021/09/05 09:16:09;;;;;;;36.80;15.17;;;15.70;97.30;;;;;;5025004;28;20438;-83
2021/09/05 09:18:36;;;;;;;39.93;15.63;;;15.80;97.30;;;;;;5039861;28;20418;-83
2021/09/05 09:21:08;;;;;;;39.73;15.13;;;15.80;97.30;;;;;;5030836;28;20414;-83
2021/09/05 09:23:35;;;;;;;41.70;15.30;;;15.80;97.30;;;;;;5035188;28;20464;-83
2021/09/05 09:26:06;;;;;;;43.07;14.50;;;15.90;97.30;;;;;;5034808;28;20511;-83
2021/09/05 09:28:39;;;;;;;42.17;15.40;;;15.90;97.30;;;;;;5042104;28;20447;-82
2021/09/05 09:31:23;;;;;;;52.30;15.37;;;15.90;97.30;;;;;;5041907;28;20424;-83
2021/09/05 09:33:53;;;;;;;32.67;14.13;;;15.90;97.30;;;;;;5042212;28;20410;-82
2021/09/05 09:36:21;;;;;;;47.20;15.60;;;15.90;97.30;;;;;;5030476;28;20477;-83
2021/09/05 09:38:59;;;;;;;41.60;15.13;;;15.90;97.30;;;;;;5031207;28;20813;-82
2021/09/05 09:41:42;;;;;;;37.43;15.80;;;15.90;97.30;;;;;;5046667;28;20410;-83
2021/09/05 09:44:11;;;;;;;36.23;13.83;;;16.00;97.30;;;;;;5054269;28;20438;-83
2021/09/05 09:46:38;;;;;;;33.50;13.47;;;16.00;97.30;;;;;;5053774;28;20445;-82
2021/09/05 09:49:10;;;;;;;27.60;11.90;;;16.10;97.30;;;;;;5034660;28;20441;-84
2021/09/05 09:51:36;;;;;;;35.40;13.87;;;16.10;97.30;;;;;;5031761;28;20430;-83
2021/09/05 09:54:03;;;;;;;44.00;14.63;;;16.10;97.30;;;;;;5052356;28;20402;-84
2021/09/05 09:56:29;;;;;;;31.50;13.10;;;16.10;97.30;;;;;;5033443;28;20454;-83
2021/09/05 09:58:57;;;;;;;38.53;14.67;;;16.20;97.30;;;;;;5033686;28;20425;-83
2021/09/05 10:01:27;;;;;;;32.13;13.53;;;16.20;97.30;;;;;;5033769;28;20426;-84
2021/09/05 10:03:54;;;;;;;35.90;14.47;;;16.30;97.30;;;;;;5033743;28;21120;-83
2021/09/05 10:06:24;;;;;;;35.60;14.17;;;16.40;97.30;;;;;;5034511;28;20557;-83
2021/09/05 10:08:56;;;;;;;39.97;14.80;;;16.40;97.30;;;;;;5052816;28;20418;-83
2021/09/05 10:11:23;;;;;;;33.37;13.50;;;16.50;97.30;;;;;;5034887;28;20422;-84
2021/09/05 10:13:49;;;;;;;32.27;14.97;;;16.50;97.30;;;;;;5054341;28;20422;-85
2021/09/05 10:16:15;;;;;;;39.50;15.67;;;16.60;97.30;;;;;;5038307;28;20458;-82
2021/09/05 10:18:44;;;;;;;41.80;15.50;;;16.60;97.30;;;;;;5054170;28;20415;-83
2021/09/05 10:21:11;;;;;;;40.70;14.87;;;16.70;97.30;;;;;;5054319;28;20497;-84
2021/09/05 10:23:37;;;;;;;45.90;14.37;;;16.80;97.30;;;;;;5036338;28;20537;-83
2021/09/05 10:26:08;;;;;;;39.13;14.10;;;16.80;97.30;;;;;;5038638;28;20507;-83
2021/09/05 10:28:42;;;;;;;40.57;15.70;;;16.90;97.30;;;;;;5042735;28;20940;-83
2021/09/05 10:31:09;;;;;;;38.50;15.47;;;17.00;97.30;;;;;;5047230;28;20439;-83
2021/09/05 10:33:42;;;;;;;42.53;17.17;;;17.00;97.30;;;;;;5043653;28;20787;-83
2021/09/05 10:36:13;;;;;;;42.87;15.53;;;17.10;97.30;;;;;;5043038;28;20500;-84
2021/09/05 10:38:43;;;;;;;44.83;17.80;;;17.30;97.30;;;;;;5038571;28;20433;-83
2021/09/05 10:41:12;;;;;;;38.67;15.77;;;17.40;97.30;;;;;;5053699;28;20521;-83
2021/09/05 10:43:47;;;;;;;35.83;14.77;;;17.40;97.30;;;;;;5034037;28;20475;-83
2021/09/05 10:46:19;;;;;;;33.07;15.40;;;17.50;97.30;;;;;;5029140;28;20516;-82
2021/09/05 10:48:55;;;;;;;34.83;14.13;;;17.50;97.30;;;;;;5052990;28;20407;-83
2021/09/05 10:51:26;;;;;;;50.87;17.50;;;17.50;97.30;;;;;;5036037;28;20419;-83
2021/09/05 10:53:56;;;;;;;36.87;15.03;;;17.50;97.30;;;;;;5054824;28;20425;-83
2021/09/05 10:56:34;;;;;;;43.17;17.30;;;17.50;97.30;;;;;;5036777;28;21052;-83
2021/09/05 10:59:18;;;;;;;42.47;14.57;;;17.50;97.30;;;;;;5037535;28;20418;-83
2021/09/05 11:01:46;;;;;;;36.83;14.60;;;17.60;97.30;;;;;;5030523;28;20419;-83
2021/09/05 11:04:12;;;;;;;29.67;15.03;;;17.60;97.30;;;;;;5042745;28;20466;-82
2021/09/05 11:06:53;;;;;;;31.97;14.33;;;17.60;97.30;;;;;;5037868;28;20521;-83
2021/09/05 11:12:18;;;;;;;37.73;14.90;;;17.70;97.30;;;;;;5055477;28;20483;-83
2021/09/05 11:14:47;;;;;;;42.30;16.47;;;17.70;97.30;;;;;;5036995;28;20207;-82
2021/09/05 11:17:21;;;;;;;33.03;14.70;;;17.80;97.30;;;;;;5043886;28;20411;-83
2021/09/05 11:19:54;;;;;;;42.53;16.20;;;17.80;97.30;;;;;;5031947;28;20568;-83
2021/09/05 11:22:29;;;;;;;34.90;15.40;;;17.80;97.30;;;;;;5048317;28;20812;-83
2021/09/05 11:25:27;;;;;;;42.73;16.60;;;17.80;97.30;;;;;;5035648;28;20465;-83
2021/09/05 11:27:58;;;;;;;49.13;16.30;;;17.80;97.30;;;;;;5050641;28;20419;-83
2021/09/05 11:30:25;;;;;;;34.67;15.03;;;17.90;97.30;;;;;;5036219;28;20454;-83
2021/09/05 11:33:00;;;;;;;30.60;14.33;;;17.90;97.30;;;;;;5055724;28;20794;-83
2021/09/05 11:35:26;;;;;;;41.10;16.83;;;18.00;97.30;;;;;;5037699;28;20467;-83
2021/09/05 11:37:55;;;;;;;39.90;18.40;;;18.10;97.30;;;;;;5038143;28;20414;-83
2021/09/05 11:40:21;;;;;;;37.23;14.70;;;18.10;97.30;;;;;;5055077;28;20179;-83
2021/09/05 11:42:53;;;;;;;36.03;15.77;;;18.20;97.30;;;;;;5036730;28;20425;-83
2021/09/05 11:45:21;;;;;;;40.97;16.40;;;18.30;97.30;;;;;;5036359;28;20446;-83
2021/09/05 11:47:57;;;;;;;35.07;14.30;;;18.40;97.30;;;;;;5050199;28;20789;-82
2021/09/05 11:50:24;;;;;;;43.47;16.70;;;18.50;97.30;;;;;;5046504;28;20426;-83
2021/09/05 11:52:49;;;;;;;34.40;14.83;;;18.40;97.30;;;;;;5036479;28;20472;-83
2021/09/05 11:55:17;;;;;;;34.20;15.10;;;18.50;97.30;;;;;;5036029;28;20438;-83
2021/09/05 11:58:06;;;;;;;34.10;15.30;;;18.60;97.30;;;;;;5036087;28;20172;-83
2021/09/05 12:00:34;;;;;;;33.77;16.60;;;18.70;97.30;;;;;;5036385;28;20430;-84
2021/09/05 12:03:05;;;;;;;33.17;15.60;;;18.70;97.30;;;;;;5037403;28;20509;-83
2021/09/05 12:05:31;;;;;;;34.10;15.03;;;18.80;97.30;;;;;;5055061;28;20438;-83
2021/09/05 12:07:57;;;;;;;42.63;16.70;;;18.80;97.30;;;;;;5054399;28;20441;-83
2021/09/05 12:10:25;;;;;;;38.13;15.60;;;18.90;97.30;;;;;;5036157;28;20410;-83
2021/09/05 12:13:01;;;;;;;41.60;16.40;;;19.00;97.30;;;;;;5036141;28;20442;-83
2021/09/05 12:15:32;;;;;;;39.40;17.13;;;19.10;97.30;;;;;;5035779;28;21163;-83
2021/09/05 12:17:59;;;;;;;34.37;16.37;;;19.10;97.30;;;;;;5052129;28;20415;-83
2021/09/05 12:20:24;;;;;;;35.30;16.20;;;19.20;97.30;;;;;;5035512;28;20433;-81
2021/09/05 12:22:53;;;;;;;38.13;15.93;;;19.30;97.30;;;;;;5035555;28;20403;-82
2021/09/05 12:25:20;;;;;;;36.53;15.27;;;19.40;97.30;;;;;;5034622;28;20850;-82
2021/09/05 12:28:05;;;;;;;39.20;15.93;;;19.50;97.30;;;;;;5027373;28;20433;-81
2021/09/05 12:30:47;;;;;;;30.60;14.67;;;19.60;97.30;;;;;;5036221;28;21137;-81
2021/09/05 12:33:17;;;;;;;34.10;16.00;;;19.70;97.30;;;;;;5023488;28;20843;-82